sensor_id;sensor_type;location;lat;lon;timestamp;P1;durP1;ratioP1;P2;durP2;ratioP2
16472;SDS011;8347;52.486;13.432;2023-03-01T00:01:02;21.00;;;10.75;;
16472;SDS011;8347;52.486;13.432;2023-03-01T00:03:50;22.20;;;9.05;;
16472;SDS011;8347;52.486;13.432;2023-03-01T00:06:37;16.90;;;8.70;;
16472;SDS011;8347;52.486;13.432;2023-03-01T00:09:24;20.52;;;10.65;;
16472;SDS011;8347;52.486;13.432;2023-03-01T00:12:11;15.85;;;8.35;;
16472;SDS011;8347;52.486;13.432;2023-03-01T00:14:57;16.80;;;9.82;;
16472;SDS011;8347;52.486;13.432;2023-03-01T00:17:43;25.80;;;11.35;;
16472;SDS011;8347;52.486;13.432;2023-03-01T00:20:30;22.50;;;11.15;;
16472;SDS011;8347;52.486;13.432;2023-03-01T00:23:16;22.85;;;10.02;;
16472;SDS011;8347;52.486;13.432;2023-03-01T00:26:05;24.13;;;11.70;;
16472;SDS011;8347;52.486;13.432;2023-03-01T00:28:54;21.25;;;10.80;;
16472;SDS011;8347;52.486;13.432;2023-03-01T00:31:45;16.50;;;10.02;;
16472;SDS011;8347;52.486;13.432;2023-03-01T00:34:42;19.25;;;10.77;;
16472;SDS011;8347;52.486;13.432;2023-03-01T00:37:39;26.10;;;10.75;;
16472;SDS011;8347;52.486;13.432;2023-03-01T00:40:27;23.00;;;11.40;;
16472;SDS011;8347;52.486;13.432;2023-03-01T00:43:14;29.15;;;11.40;;
16472;SDS011;8347;52.486;13.432;2023-03-01T00:46:02;19.08;;;10.88;;
16472;SDS011;8347;52.486;13.432;2023-03-01T00:48:50;21.10;;;11.40;;
16472;SDS011;8347;52.486;13.432;2023-03-01T00:51:36;22.70;;;10.63;;
16472;SDS011;8347;52.486;13.432;2023-03-01T00:54:23;26.67;;;11.82;;
16472;SDS011;8347;52.486;13.432;2023-03-01T00:57:09;27.20;;;13.98;;
16472;SDS011;8347;52.486;13.432;2023-03-01T00:59:56;22.77;;;11.95;;
16472;SDS011;8347;52.486;13.432;2023-03-01T01:02:42;19.98;;;11.68;;
16472;SDS011;8347;52.486;13.432;2023-03-01T01:05:29;24.30;;;11.45;;
16472;SDS011;8347;52.486;13.432;2023-03-01T01:08:15;31.20;;;13.75;;
16472;SDS011;8347;52.486;13.432;2023-03-01T01:11:02;35.65;;;16.38;;
16472;SDS011;8347;52.486;13.432;2023-03-01T01:13:48;34.65;;;14.77;;
16472;SDS011;8347;52.486;13.432;2023-03-01T01:16:35;28.85;;;14.07;;
16472;SDS011;8347;52.486;13.432;2023-03-01T01:19:21;26.45;;;13.35;;
16472;SDS011;8347;52.486;13.432;2023-03-01T01:22:08;29.35;;;14.07;;
16472;SDS011;8347;52.486;13.432;2023-03-01T01:24:55;27.52;;;12.82;;
16472;SDS011;8347;52.486;13.432;2023-03-01T01:27:41;26.40;;;13.13;;
16472;SDS011;8347;52.486;13.432;2023-03-01T01:30:28;24.58;;;12.43;;
16472;SDS011;8347;52.486;13.432;2023-03-01T01:33:15;20.15;;;11.70;;
16472;SDS011;8347;52.486;13.432;2023-03-01T01:36:01;19.88;;;10.95;;
16472;SDS011;8347;52.486;13.432;2023-03-01T01:38:48;19.88;;;10.55;;
16472;SDS011;8347;52.486;13.432;2023-03-01T01:41:35;16.48;;;9.07;;
16472;SDS011;8347;52.486;13.432;2023-03-01T01:44:23;19.83;;;9.88;;
16472;SDS011;8347;52.486;13.432;2023-03-01T01:47:13;15.98;;;8.88;;
16472;SDS011;8347;52.486;13.432;2023-03-01T01:50:02;22.20;;;10.60;;
16472;SDS011;8347;52.486;13.432;2023-03-01T01:52:49;15.85;;;9.05;;
16472;SDS011;8347;52.486;13.432;2023-03-01T01:55:39;16.13;;;8.80;;
16472;SDS011;8347;52.486;13.432;2023-03-01T01:58:31;20.30;;;9.25;;
16472;SDS011;8347;52.486;13.432;2023-03-01T02:01:18;16.55;;;8.73;;
16472;SDS011;8347;52.486;13.432;2023-03-01T02:04:05;21.40;;;8.25;;
16472;SDS011;8347;52.486;13.432;2023-03-01T02:06:58;16.38;;;8.95;;
16472;SDS011;8347;52.486;13.432;2023-03-01T02:09:46;16.05;;;8.60;;
16472;SDS011;8347;52.486;13.432;2023-03-01T02:12:33;20.13;;;10.52;;
16472;SDS011;8347;52.486;13.432;2023-03-01T02:15:22;19.63;;;9.43;;
16472;SDS011;8347;52.486;13.432;2023-03-01T02:18:09;20.20;;;10.65;;
16472;SDS011;8347;52.486;13.432;2023-03-01T02:24:05;19.95;;;10.25;;
16472;SDS011;8347;52.486;13.432;2023-03-01T02:26:55;23.52;;;10.18;;
16472;SDS011;8347;52.486;13.432;2023-03-01T02:29:42;24.17;;;10.85;;
16472;SDS011;8347;52.486;13.432;2023-03-01T02:32:29;20.55;;;10.82;;
16472;SDS011;8347;52.486;13.432;2023-03-01T02:35:16;23.90;;;10.82;;
16472;SDS011;8347;52.486;13.432;2023-03-01T02:38:06;21.40;;;11.00;;
16472;SDS011;8347;52.486;13.432;2023-03-01T02:40:54;20.02;;;10.70;;
16472;SDS011;8347;52.486;13.432;2023-03-01T02:43:43;18.70;;;12.02;;
16472;SDS011;8347;52.486;13.432;2023-03-01T02:46:30;20.75;;;11.13;;
16472;SDS011;8347;52.486;13.432;2023-03-01T02:49:27;20.20;;;10.82;;
16472;SDS011;8347;52.486;13.432;2023-03-01T02:52:17;21.90;;;10.75;;
16472;SDS011;8347;52.486;13.432;2023-03-01T02:55:16;20.13;;;10.45;;
16472;SDS011;8347;52.486;13.432;2023-03-01T02:58:04;21.63;;;10.30;;
16472;SDS011;8347;52.486;13.432;2023-03-01T03:00:51;22.40;;;10.90;;
16472;SDS011;8347;52.486;13.432;2023-03-01T03:03:38;23.35;;;11.23;;
16472;SDS011;8347;52.486;13.432;2023-03-01T03:06:25;20.05;;;11.27;;
16472;SDS011;8347;52.486;13.432;2023-03-01T03:09:12;19.75;;;10.52;;
16472;SDS011;8347;52.486;13.432;2023-03-01T03:11:58;22.23;;;13.23;;
16472;SDS011;8347;52.486;13.432;2023-03-01T03:14:45;23.23;;;12.27;;
16472;SDS011;8347;52.486;13.432;2023-03-01T03:17:32;23.80;;;10.98;;
16472;SDS011;8347;52.486;13.432;2023-03-01T03:20:19;19.85;;;10.77;;
16472;SDS011;8347;52.486;13.432;2023-03-01T03:23:06;24.95;;;12.35;;
16472;SDS011;8347;52.486;13.432;2023-03-01T03:25:52;21.33;;;12.20;;
16472;SDS011;8347;52.486;13.432;2023-03-01T03:28:39;23.42;;;12.93;;
16472;SDS011;8347;52.486;13.432;2023-03-01T03:31:25;26.05;;;13.23;;
16472;SDS011;8347;52.486;13.432;2023-03-01T03:34:12;25.35;;;13.15;;
16472;SDS011;8347;52.486;13.432;2023-03-01T03:37:03;22.45;;;13.27;;
16472;SDS011;8347;52.486;13.432;2023-03-01T03:40:10;18.58;;;11.80;;
16472;SDS011;8347;52.486;13.432;2023-03-01T03:43:01;25.85;;;13.25;;
16472;SDS011;8347;52.486;13.432;2023-03-01T03:45:48;23.88;;;12.40;;
16472;SDS011;8347;52.486;13.432;2023-03-01T03:48:37;21.40;;;11.73;;
16472;SDS011;8347;52.486;13.432;2023-03-01T03:51:25;22.70;;;11.98;;
16472;SDS011;8347;52.486;13.432;2023-03-01T03:54:11;24.00;;;11.95;;
16472;SDS011;8347;52.486;13.432;2023-03-01T03:56:57;23.45;;;13.35;;
16472;SDS011;8347;52.486;13.432;2023-03-01T03:59:44;25.80;;;13.40;;
16472;SDS011;8347;52.486;13.432;2023-03-01T04:02:31;23.77;;;12.35;;
16472;SDS011;8347;52.486;13.432;2023-03-01T04:05:18;21.02;;;12.90;;
16472;SDS011;8347;52.486;13.432;2023-03-01T04:08:05;27.88;;;13.93;;
16472;SDS011;8347;52.486;13.432;2023-03-01T04:11:02;22.48;;;13.10;;
16472;SDS011;8347;52.486;13.432;2023-03-01T04:14:09;29.00;;;12.77;;
16472;SDS011;8347;52.486;13.432;2023-03-01T04:16:55;25.48;;;12.52;;
16472;SDS011;8347;52.486;13.432;2023-03-01T04:19:42;21.98;;;13.15;;
16472;SDS011;8347;52.486;13.432;2023-03-01T04:22:29;27.20;;;13.07;;
16472;SDS011;8347;52.486;13.432;2023-03-01T04:25:17;31.55;;;13.63;;
16472;SDS011;8347;52.486;13.432;2023-03-01T04:28:04;25.60;;;14.82;;
16472;SDS011;8347;52.486;13.432;2023-03-01T04:30:51;25.90;;;13.20;;
16472;SDS011;8347;52.486;13.432;2023-03-01T04:33:39;29.00;;;14.15;;
16472;SDS011;8347;52.486;13.432;2023-03-01T04:36:27;25.27;;;14.50;;
16472;SDS011;8347;52.486;13.432;2023-03-01T04:39:14;26.45;;;13.73;;
16472;SDS011;8347;52.486;13.432;2023-03-01T04:42:00;25.42;;;12.85;;
16472;SDS011;8347;52.486;13.432;2023-03-01T04:44:47;29.50;;;13.00;;
16472;SDS011;8347;52.486;13.432;2023-03-01T04:47:33;28.58;;;13.98;;
16472;SDS011;8347;52.486;13.432;2023-03-01T04:50:23;31.42;;;15.63;;
16472;SDS011;8347;52.486;13.432;2023-03-01T04:53:11;29.48;;;13.88;;
16472;SDS011;8347;52.486;13.432;2023-03-01T04:55:57;25.05;;;13.90;;
16472;SDS011;8347;52.486;13.432;2023-03-01T04:58:45;27.02;;;14.52;;
16472;SDS011;8347;52.486;13.432;2023-03-01T05:01:32;28.30;;;15.65;;
16472;SDS011;8347;52.486;13.432;2023-03-01T05:04:18;29.27;;;14.05;;
16472;SDS011;8347;52.486;13.432;2023-03-01T05:07:05;27.05;;;14.55;;
16472;SDS011;8347;52.486;13.432;2023-03-01T05:09:51;28.25;;;14.65;;
16472;SDS011;8347;52.486;13.432;2023-03-01T05:12:38;25.35;;;14.35;;
16472;SDS011;8347;52.486;13.432;2023-03-01T05:15:25;33.30;;;15.45;;
16472;SDS011;8347;52.486;13.432;2023-03-01T05:18:13;23.80;;;15.00;;
16472;SDS011;8347;52.486;13.432;2023-03-01T05:21:07;26.33;;;13.80;;
16472;SDS011;8347;52.486;13.432;2023-03-01T05:23:55;26.67;;;14.38;;
16472;SDS011;8347;52.486;13.432;2023-03-01T05:26:42;27.98;;;15.02;;
16472;SDS011;8347;52.486;13.432;2023-03-01T05:29:28;27.42;;;14.23;;
16472;SDS011;8347;52.486;13.432;2023-03-01T05:32:16;30.20;;;15.52;;
16472;SDS011;8347;52.486;13.432;2023-03-01T05:35:03;30.13;;;15.82;;
16472;SDS011;8347;52.486;13.432;2023-03-01T05:37:50;28.67;;;15.10;;
16472;SDS011;8347;52.486;13.432;2023-03-01T05:40:37;26.63;;;15.02;;
16472;SDS011;8347;52.486;13.432;2023-03-01T05:43:24;32.40;;;15.70;;
16472;SDS011;8347;52.486;13.432;2023-03-01T05:46:10;26.85;;;14.07;;
16472;SDS011;8347;52.486;13.432;2023-03-01T05:48:58;30.50;;;15.68;;
16472;SDS011;8347;52.486;13.432;2023-03-01T05:51:49;30.90;;;15.38;;
16472;SDS011;8347;52.486;13.432;2023-03-01T05:54:36;30.05;;;14.63;;
16472;SDS011;8347;52.486;13.432;2023-03-01T05:57:22;28.65;;;17.02;;
16472;SDS011;8347;52.486;13.432;2023-03-01T06:00:09;45.67;;;22.67;;
16472;SDS011;8347;52.486;13.432;2023-03-01T06:02:59;38.35;;;21.70;;
16472;SDS011;8347;52.486;13.432;2023-03-01T06:05:46;34.53;;;17.63;;
16472;SDS011;8347;52.486;13.432;2023-03-01T06:08:32;30.85;;;17.00;;
16472;SDS011;8347;52.486;13.432;2023-03-01T06:11:19;31.25;;;15.60;;
16472;SDS011;8347;52.486;13.432;2023-03-01T06:14:07;31.00;;;16.02;;
16472;SDS011;8347;52.486;13.432;2023-03-01T06:16:54;29.50;;;16.40;;
16472;SDS011;8347;52.486;13.432;2023-03-01T06:19:40;29.55;;;16.08;;
16472;SDS011;8347;52.486;13.432;2023-03-01T06:22:26;30.27;;;15.32;;
16472;SDS011;8347;52.486;13.432;2023-03-01T06:25:14;32.65;;;16.73;;
16472;SDS011;8347;52.486;13.432;2023-03-01T06:28:02;32.47;;;15.10;;
16472;SDS011;8347;52.486;13.432;2023-03-01T06:30:50;30.17;;;16.52;;
16472;SDS011;8347;52.486;13.432;2023-03-01T06:33:37;31.70;;;16.33;;
16472;SDS011;8347;52.486;13.432;2023-03-01T06:36:24;36.15;;;18.27;;
16472;SDS011;8347;52.486;13.432;2023-03-01T06:39:10;29.33;;;14.90;;
16472;SDS011;8347;52.486;13.432;2023-03-01T06:41:57;26.33;;;14.77;;
16472;SDS011;8347;52.486;13.432;2023-03-01T06:44:44;26.15;;;14.65;;
16472;SDS011;8347;52.486;13.432;2023-03-01T06:47:32;29.48;;;16.85;;
16472;SDS011;8347;52.486;13.432;2023-03-01T06:50:21;27.80;;;15.10;;
16472;SDS011;8347;52.486;13.432;2023-03-01T06:53:08;28.33;;;15.93;;
16472;SDS011;8347;52.486;13.432;2023-03-01T06:55:57;27.98;;;14.40;;
16472;SDS011;8347;52.486;13.432;2023-03-01T06:58:45;26.90;;;15.85;;
16472;SDS011;8347;52.486;13.432;2023-03-01T07:01:32;28.42;;;16.38;;
16472;SDS011;8347;52.486;13.432;2023-03-01T07:04:18;32.67;;;15.50;;
16472;SDS011;8347;52.486;13.432;2023-03-01T07:07:05;27.50;;;14.93;;
16472;SDS011;8347;52.486;13.432;2023-03-01T07:09:51;29.58;;;18.23;;
16472;SDS011;8347;52.486;13.432;2023-03-01T07:12:39;32.13;;;15.13;;
16472;SDS011;8347;52.486;13.432;2023-03-01T07:15:27;30.40;;;17.25;;
16472;SDS011;8347;52.486;13.432;2023-03-01T07:18:14;29.73;;;17.27;;
16472;SDS011;8347;52.486;13.432;2023-03-01T07:21:04;39.28;;;20.35;;
16472;SDS011;8347;52.486;13.432;2023-03-01T07:23:51;29.08;;;15.73;;
16472;SDS011;8347;52.486;13.432;2023-03-01T07:26:38;43.70;;;19.08;;
16472;SDS011;8347;52.486;13.432;2023-03-01T07:29:24;31.67;;;19.50;;
16472;SDS011;8347;52.486;13.432;2023-03-01T07:32:11;32.38;;;19.10;;
16472;SDS011;8347;52.486;13.432;2023-03-01T07:34:58;35.80;;;18.67;;
16472;SDS011;8347;52.486;13.432;2023-03-01T07:37:44;35.38;;;19.90;;
16472;SDS011;8347;52.486;13.432;2023-03-01T07:40:31;35.45;;;18.95;;
16472;SDS011;8347;52.486;13.432;2023-03-01T07:43:17;38.97;;;19.75;;
16472;SDS011;8347;52.486;13.432;2023-03-01T07:46:04;35.53;;;20.63;;
16472;SDS011;8347;52.486;13.432;2023-03-01T07:48:52;34.08;;;18.23;;
16472;SDS011;8347;52.486;13.432;2023-03-01T07:51:38;37.28;;;19.05;;
16472;SDS011;8347;52.486;13.432;2023-03-01T07:54:25;27.80;;;17.67;;
16472;SDS011;8347;52.486;13.432;2023-03-01T07:57:11;33.05;;;17.60;;
16472;SDS011;8347;52.486;13.432;2023-03-01T07:59:58;38.90;;;18.45;;
16472;SDS011;8347;52.486;13.432;2023-03-01T08:02:44;35.28;;;17.92;;
16472;SDS011;8347;52.486;13.432;2023-03-01T08:05:31;28.30;;;17.33;;
16472;SDS011;8347;52.486;13.432;2023-03-01T08:08:18;29.60;;;15.68;;
16472;SDS011;8347;52.486;13.432;2023-03-01T08:11:05;27.02;;;15.02;;
16472;SDS011;8347;52.486;13.432;2023-03-01T08:13:52;31.00;;;17.20;;
16472;SDS011;8347;52.486;13.432;2023-03-01T08:16:38;26.92;;;15.32;;
16472;SDS011;8347;52.486;13.432;2023-03-01T08:19:25;30.17;;;16.13;;
16472;SDS011;8347;52.486;13.432;2023-03-01T08:22:14;31.65;;;16.05;;
16472;SDS011;8347;52.486;13.432;2023-03-01T08:25:01;35.72;;;16.80;;
16472;SDS011;8347;52.486;13.432;2023-03-01T08:27:47;28.13;;;16.10;;
16472;SDS011;8347;52.486;13.432;2023-03-01T08:30:34;28.55;;;15.32;;
16472;SDS011;8347;52.486;13.432;2023-03-01T08:33:20;25.77;;;14.55;;
16472;SDS011;8347;52.486;13.432;2023-03-01T08:36:07;27.15;;;14.50;;
16472;SDS011;8347;52.486;13.432;2023-03-01T08:38:54;20.58;;;11.00;;
16472;SDS011;8347;52.486;13.432;2023-03-01T08:41:41;19.77;;;12.07;;
16472;SDS011;8347;52.486;13.432;2023-03-01T08:44:27;17.65;;;10.27;;
16472;SDS011;8347;52.486;13.432;2023-03-01T08:47:14;28.48;;;14.38;;
16472;SDS011;8347;52.486;13.432;2023-03-01T08:50:01;22.63;;;11.80;;
16472;SDS011;8347;52.486;13.432;2023-03-01T08:52:47;15.32;;;8.27;;
16472;SDS011;8347;52.486;13.432;2023-03-01T08:55:34;20.52;;;10.70;;
16472;SDS011;8347;52.486;13.432;2023-03-01T08:58:20;15.68;;;9.40;;
16472;SDS011;8347;52.486;13.432;2023-03-01T09:01:07;19.23;;;10.68;;
16472;SDS011;8347;52.486;13.432;2023-03-01T09:03:54;15.05;;;9.30;;
16472;SDS011;8347;52.486;13.432;2023-03-01T09:06:41;16.27;;;8.63;;
16472;SDS011;8347;52.486;13.432;2023-03-01T09:09:28;13.70;;;7.90;;
16472;SDS011;8347;52.486;13.432;2023-03-01T09:12:14;14.75;;;7.45;;
16472;SDS011;8347;52.486;13.432;2023-03-01T09:15:01;12.50;;;7.53;;
16472;SDS011;8347;52.486;13.432;2023-03-01T09:17:47;14.43;;;7.72;;
16472;SDS011;8347;52.486;13.432;2023-03-01T09:20:34;11.35;;;6.63;;
16472;SDS011;8347;52.486;13.432;2023-03-01T09:23:20;14.00;;;7.10;;
16472;SDS011;8347;52.486;13.432;2023-03-01T09:26:07;12.40;;;6.97;;
16472;SDS011;8347;52.486;13.432;2023-03-01T09:28:55;12.73;;;6.47;;
16472;SDS011;8347;52.486;13.432;2023-03-01T09:31:42;13.45;;;5.65;;
16472;SDS011;8347;52.486;13.432;2023-03-01T09:34:29;10.45;;;6.53;;
16472;SDS011;8347;52.486;13.432;2023-03-01T09:37:15;12.30;;;6.70;;
16472;SDS011;8347;52.486;13.432;2023-03-01T09:40:02;11.38;;;6.55;;
16472;SDS011;8347;52.486;13.432;2023-03-01T09:42:56;15.73;;;6.95;;
16472;SDS011;8347;52.486;13.432;2023-03-01T09:45:45;11.32;;;7.25;;
16472;SDS011;8347;52.486;13.432;2023-03-01T09:48:38;12.40;;;6.22;;
16472;SDS011;8347;52.486;13.432;2023-03-01T09:51:31;10.40;;;5.38;;
16472;SDS011;8347;52.486;13.432;2023-03-01T09:54:18;14.98;;;6.07;;
16472;SDS011;8347;52.486;13.432;2023-03-01T09:57:07;12.07;;;5.05;;
16472;SDS011;8347;52.486;13.432;2023-03-01T10:00:03;8.35;;;4.57;;
16472;SDS011;8347;52.486;13.432;2023-03-01T10:06:19;11.40;;;4.95;;
16472;SDS011;8347;52.486;13.432;2023-03-01T10:09:15;8.98;;;5.53;;
16472;SDS011;8347;52.486;13.432;2023-03-01T10:12:04;8.27;;;4.50;;
16472;SDS011;8347;52.486;13.432;2023-03-01T10:14:59;11.90;;;5.03;;
16472;SDS011;8347;52.486;13.432;2023-03-01T10:17:49;5.90;;;4.28;;
16472;SDS011;8347;52.486;13.432;2023-03-01T10:23:43;8.05;;;4.30;;
16472;SDS011;8347;52.486;13.432;2023-03-01T10:29:37;5.82;;;3.83;;
16472;SDS011;8347;52.486;13.432;2023-03-01T10:32:34;8.90;;;3.95;;
16472;SDS011;8347;52.486;13.432;2023-03-01T10:35:22;6.28;;;4.60;;
16472;SDS011;8347;52.486;13.432;2023-03-01T10:38:10;7.22;;;3.70;;
16472;SDS011;8347;52.486;13.432;2023-03-01T10:40:59;10.15;;;4.60;;
16472;SDS011;8347;52.486;13.432;2023-03-01T10:43:52;8.70;;;4.07;;
16472;SDS011;8347;52.486;13.432;2023-03-01T10:46:39;7.25;;;4.03;;
16472;SDS011;8347;52.486;13.432;2023-03-01T10:49:25;5.78;;;4.03;;
16472;SDS011;8347;52.486;13.432;2023-03-01T10:52:20;11.98;;;4.38;;
16472;SDS011;8347;52.486;13.432;2023-03-01T10:58:07;8.45;;;4.68;;
16472;SDS011;8347;52.486;13.432;2023-03-01T11:01:37;7.35;;;4.30;;
16472;SDS011;8347;52.486;13.432;2023-03-01T11:07:00;8.20;;;4.05;;
16472;SDS011;8347;52.486;13.432;2023-03-01T11:09:47;9.18;;;4.70;;
16472;SDS011;8347;52.486;13.432;2023-03-01T11:12:40;8.75;;;4.28;;
16472;SDS011;8347;52.486;13.432;2023-03-01T11:15:27;11.25;;;4.32;;
16472;SDS011;8347;52.486;13.432;2023-03-01T11:18:20;8.05;;;4.70;;
16472;SDS011;8347;52.486;13.432;2023-03-01T11:21:08;7.63;;;4.93;;
16472;SDS011;8347;52.486;13.432;2023-03-01T11:23:55;6.07;;;3.10;;
16472;SDS011;8347;52.486;13.432;2023-03-01T11:26:47;7.68;;;3.38;;
16472;SDS011;8347;52.486;13.432;2023-03-01T11:29:39;5.70;;;3.08;;
16472;SDS011;8347;52.486;13.432;2023-03-01T11:32:28;6.38;;;3.50;;
16472;SDS011;8347;52.486;13.432;2023-03-01T11:35:20;8.73;;;4.13;;
16472;SDS011;8347;52.486;13.432;2023-03-01T11:38:15;7.03;;;3.80;;
16472;SDS011;8347;52.486;13.432;2023-03-01T11:41:16;9.60;;;3.63;;
16472;SDS011;8347;52.486;13.432;2023-03-01T11:44:08;9.68;;;4.75;;
16472;SDS011;8347;52.486;13.432;2023-03-01T11:47:02;9.07;;;3.75;;
16472;SDS011;8347;52.486;13.432;2023-03-01T11:55:46;5.90;;;3.50;;
16472;SDS011;8347;52.486;13.432;2023-03-01T11:58:43;5.72;;;3.30;;
16472;SDS011;8347;52.486;13.432;2023-03-01T12:10:24;3.53;;;2.08;;
16472;SDS011;8347;52.486;13.432;2023-03-01T12:31:05;5.40;;;2.03;;
16472;SDS011;8347;52.486;13.432;2023-03-01T12:37:00;7.05;;;2.90;;
16472;SDS011;8347;52.486;13.432;2023-03-01T12:39:59;3.78;;;2.00;;
16472;SDS011;8347;52.486;13.432;2023-03-01T12:43:01;3.40;;;1.85;;
16472;SDS011;8347;52.486;13.432;2023-03-01T12:46:03;3.22;;;2.03;;
16472;SDS011;8347;52.486;13.432;2023-03-01T12:51:59;4.88;;;2.00;;
16472;SDS011;8347;52.486;13.432;2023-03-01T12:54:49;3.53;;;1.58;;
16472;SDS011;8347;52.486;13.432;2023-03-01T12:57:38;3.13;;;1.90;;
16472;SDS011;8347;52.486;13.432;2023-03-01T13:00:39;2.88;;;1.98;;
16472;SDS011;8347;52.486;13.432;2023-03-01T13:09:29;5.68;;;3.53;;
16472;SDS011;8347;52.486;13.432;2023-03-01T13:13:10;5.45;;;3.80;;
16472;SDS011;8347;52.486;13.432;2023-03-01T13:15:49;2.72;;;1.80;;
16472;SDS011;8347;52.486;13.432;2023-03-01T13:18:39;3.30;;;2.00;;
16472;SDS011;8347;52.486;13.432;2023-03-01T13:21:30;4.35;;;1.95;;
16472;SDS011;8347;52.486;13.432;2023-03-01T13:24:27;5.20;;;2.38;;
16472;SDS011;8347;52.486;13.432;2023-03-01T13:27:27;3.80;;;2.58;;
16472;SDS011;8347;52.486;13.432;2023-03-01T13:30:38;11.68;;;5.53;;
16472;SDS011;8347;52.486;13.432;2023-03-01T13:36:46;4.38;;;2.13;;
16472;SDS011;8347;52.486;13.432;2023-03-01T13:39:38;2.92;;;1.92;;
16472;SDS011;8347;52.486;13.432;2023-03-01T13:42:33;4.10;;;2.60;;
16472;SDS011;8347;52.486;13.432;2023-03-01T13:45:36;4.35;;;2.25;;
16472;SDS011;8347;52.486;13.432;2023-03-01T13:48:28;8.02;;;2.40;;
16472;SDS011;8347;52.486;13.432;2023-03-01T13:51:16;5.25;;;2.15;;
16472;SDS011;8347;52.486;13.432;2023-03-01T13:54:11;3.00;;;2.05;;
16472;SDS011;8347;52.486;13.432;2023-03-01T13:56:59;6.38;;;2.35;;
16472;SDS011;8347;52.486;13.432;2023-03-01T13:59:47;4.90;;;1.67;;
16472;SDS011;8347;52.486;13.432;2023-03-01T14:02:34;3.42;;;1.90;;
16472;SDS011;8347;52.486;13.432;2023-03-01T14:05:24;3.90;;;2.13;;
16472;SDS011;8347;52.486;13.432;2023-03-01T14:08:21;4.50;;;2.47;;
16472;SDS011;8347;52.486;13.432;2023-03-01T14:11:17;3.50;;;2.17;;
16472;SDS011;8347;52.486;13.432;2023-03-01T14:17:03;2.92;;;2.03;;
16472;SDS011;8347;52.486;13.432;2023-03-01T14:20:11;4.85;;;2.03;;
16472;SDS011;8347;52.486;13.432;2023-03-01T14:23:01;3.78;;;2.28;;
16472;SDS011;8347;52.486;13.432;2023-03-01T14:25:50;6.88;;;2.30;;
16472;SDS011;8347;52.486;13.432;2023-03-01T14:28:36;3.03;;;1.83;;
16472;SDS011;8347;52.486;13.432;2023-03-01T14:31:35;4.47;;;1.90;;
16472;SDS011;8347;52.486;13.432;2023-03-01T14:34:22;2.60;;;1.85;;
16472;SDS011;8347;52.486;13.432;2023-03-01T14:40:21;3.97;;;2.13;;
16472;SDS011;8347;52.486;13.432;2023-03-01T14:43:16;5.13;;;2.20;;
16472;SDS011;8347;52.486;13.432;2023-03-01T14:46:05;6.15;;;2.17;;
16472;SDS011;8347;52.486;13.432;2023-03-01T14:48:53;4.32;;;2.10;;
16472;SDS011;8347;52.486;13.432;2023-03-01T14:51:41;4.22;;;2.28;;
16472;SDS011;8347;52.486;13.432;2023-03-01T14:57:27;3.83;;;2.33;;
16472;SDS011;8347;52.486;13.432;2023-03-01T15:00:24;3.42;;;1.90;;
16472;SDS011;8347;52.486;13.432;2023-03-01T15:03:18;4.30;;;1.92;;
16472;SDS011;8347;52.486;13.432;2023-03-01T15:06:09;1.70;;;1.60;;
16472;SDS011;8347;52.486;13.432;2023-03-01T15:08:57;4.47;;;2.03;;
16472;SDS011;8347;52.486;13.432;2023-03-01T15:11:44;5.20;;;2.30;;
16472;SDS011;8347;52.486;13.432;2023-03-01T15:14:41;4.63;;;1.77;;
16472;SDS011;8347;52.486;13.432;2023-03-01T15:17:35;3.35;;;1.60;;
16472;SDS011;8347;52.486;13.432;2023-03-01T15:20:23;3.28;;;2.03;;
16472;SDS011;8347;52.486;13.432;2023-03-01T15:23:18;4.70;;;2.35;;
16472;SDS011;8347;52.486;13.432;2023-03-01T15:26:23;8.73;;;2.40;;
16472;SDS011;8347;52.486;13.432;2023-03-01T15:29:15;5.22;;;1.98;;
16472;SDS011;8347;52.486;13.432;2023-03-01T15:32:23;5.10;;;2.38;;
16472;SDS011;8347;52.486;13.432;2023-03-01T15:38:24;3.30;;;1.92;;
16472;SDS011;8347;52.486;13.432;2023-03-01T15:41:23;2.22;;;1.77;;
16472;SDS011;8347;52.486;13.432;2023-03-01T15:44:16;5.03;;;2.00;;
16472;SDS011;8347;52.486;13.432;2023-03-01T15:47:04;4.07;;;2.42;;
16472;SDS011;8347;52.486;13.432;2023-03-01T15:49:54;3.53;;;2.35;;
16472;SDS011;8347;52.486;13.432;2023-03-01T15:52:42;6.50;;;2.40;;
16472;SDS011;8347;52.486;13.432;2023-03-01T15:55:29;4.05;;;1.88;;
16472;SDS011;8347;52.486;13.432;2023-03-01T15:58:20;3.65;;;2.20;;
16472;SDS011;8347;52.486;13.432;2023-03-01T16:01:10;5.97;;;2.90;;
16472;SDS011;8347;52.486;13.432;2023-03-01T16:03:58;4.53;;;2.42;;
16472;SDS011;8347;52.486;13.432;2023-03-01T16:06:44;4.57;;;2.08;;
16472;SDS011;8347;52.486;13.432;2023-03-01T16:09:31;4.95;;;3.03;;
16472;SDS011;8347;52.486;13.432;2023-03-01T16:12:18;4.88;;;2.28;;
16472;SDS011;8347;52.486;13.432;2023-03-01T16:15:23;4.57;;;2.42;;
16472;SDS011;8347;52.486;13.432;2023-03-01T16:18:10;7.32;;;2.40;;
16472;SDS011;8347;52.486;13.432;2023-03-01T16:20:57;6.38;;;3.58;;
16472;SDS011;8347;52.486;13.432;2023-03-01T16:23:45;6.13;;;2.30;;
16472;SDS011;8347;52.486;13.432;2023-03-01T16:26:31;3.67;;;2.50;;
16472;SDS011;8347;52.486;13.432;2023-03-01T16:29:18;3.20;;;2.13;;
16472;SDS011;8347;52.486;13.432;2023-03-01T16:32:04;6.55;;;2.08;;
16472;SDS011;8347;52.486;13.432;2023-03-01T16:34:51;4.30;;;2.50;;
16472;SDS011;8347;52.486;13.432;2023-03-01T16:37:38;4.38;;;2.40;;
16472;SDS011;8347;52.486;13.432;2023-03-01T16:40:27;4.32;;;2.72;;
16472;SDS011;8347;52.486;13.432;2023-03-01T16:43:13;6.25;;;3.10;;
16472;SDS011;8347;52.486;13.432;2023-03-01T16:46:00;5.45;;;2.63;;
16472;SDS011;8347;52.486;13.432;2023-03-01T16:48:48;7.53;;;2.80;;
16472;SDS011;8347;52.486;13.432;2023-03-01T16:51:35;6.30;;;3.53;;
16472;SDS011;8347;52.486;13.432;2023-03-01T16:54:21;13.13;;;4.93;;
16472;SDS011;8347;52.486;13.432;2023-03-01T16:57:08;15.43;;;6.00;;
16472;SDS011;8347;52.486;13.432;2023-03-01T16:59:55;11.43;;;6.18;;
16472;SDS011;8347;52.486;13.432;2023-03-01T17:02:41;14.93;;;8.25;;
16472;SDS011;8347;52.486;13.432;2023-03-01T17:05:28;23.65;;;12.98;;
16472;SDS011;8347;52.486;13.432;2023-03-01T17:08:14;17.15;;;9.63;;
16472;SDS011;8347;52.486;13.432;2023-03-01T17:11:02;16.25;;;8.05;;
16472;SDS011;8347;52.486;13.432;2023-03-01T17:13:49;11.13;;;6.10;;
16472;SDS011;8347;52.486;13.432;2023-03-01T17:16:36;11.80;;;4.30;;
16472;SDS011;8347;52.486;13.432;2023-03-01T17:19:22;8.50;;;4.40;;
16472;SDS011;8347;52.486;13.432;2023-03-01T17:22:09;8.57;;;4.80;;
16472;SDS011;8347;52.486;13.432;2023-03-01T17:24:58;10.18;;;4.72;;
16472;SDS011;8347;52.486;13.432;2023-03-01T17:27:45;13.75;;;6.47;;
16472;SDS011;8347;52.486;13.432;2023-03-01T17:30:32;14.07;;;6.88;;
16472;SDS011;8347;52.486;13.432;2023-03-01T17:33:18;12.80;;;6.55;;
16472;SDS011;8347;52.486;13.432;2023-03-01T17:36:06;9.80;;;5.53;;
16472;SDS011;8347;52.486;13.432;2023-03-01T17:38:52;9.02;;;4.80;;
16472;SDS011;8347;52.486;13.432;2023-03-01T17:41:39;11.30;;;5.40;;
16472;SDS011;8347;52.486;13.432;2023-03-01T17:44:25;8.05;;;5.15;;
16472;SDS011;8347;52.486;13.432;2023-03-01T17:47:12;13.13;;;5.80;;
16472;SDS011;8347;52.486;13.432;2023-03-01T17:49:59;10.57;;;5.47;;
16472;SDS011;8347;52.486;13.432;2023-03-01T17:52:45;11.07;;;5.13;;
16472;SDS011;8347;52.486;13.432;2023-03-01T17:55:32;8.32;;;5.57;;
16472;SDS011;8347;52.486;13.432;2023-03-01T17:58:19;7.13;;;4.20;;
16472;SDS011;8347;52.486;13.432;2023-03-01T18:01:08;8.55;;;4.07;;